Terminal Aerodrome Forecast
Issued by NWS

Home | Current Version | Previous Version | Text Only | Print | Product List | Glossary On
Versions: 1 2 3 4 5 6 7 8 9 10 11 12 13 14
000
FTUS42 TJSJ 060500
TAFJBQ
TAF
TJBQ 060539Z 0606/0706 11010KT P6SM VCSH FEW025 SCT035 SCT060
     FM061400 08020G27KT P6SM VCSH FEW025 SCT040
     FM062300 09008KT P6SM SCT025
      AMD NOT SKED TIL 061100=

USA.gov is the U.S. government's official web portal to all federal, state and local government web resources and services.